createdAt,value
2023-05-21T00:01:01.792Z,16.83
2023-05-21T00:03:32.315Z,16.86
2023-05-21T00:06:02.546Z,16.89
2023-05-21T00:08:32.676Z,16.88
2023-05-21T00:11:03.025Z,16.88
2023-05-21T00:13:33.136Z,16.86
2023-05-21T00:16:03.572Z,16.80
2023-05-21T00:18:33.895Z,16.74
2023-05-21T00:21:04.256Z,16.64
2023-05-21T00:23:34.658Z,16.61
2023-05-21T00:26:05.038Z,16.61
2023-05-21T00:28:35.079Z,16.60
2023-05-21T00:31:05.425Z,16.61
2023-05-21T00:33:35.940Z,16.60
2023-05-21T00:36:06.199Z,16.64
2023-05-21T00:38:36.602Z,16.66
2023-05-21T00:41:06.965Z,16.64
2023-05-21T00:43:37.381Z,16.58
2023-05-21T00:46:07.784Z,16.43
2023-05-21T00:48:38.142Z,16.49
2023-05-21T00:51:08.639Z,16.51
2023-05-21T00:53:38.923Z,16.53
2023-05-21T00:56:09.369Z,16.57
2023-05-21T00:58:39.686Z,16.53
2023-05-21T01:01:10.076Z,16.54
2023-05-21T01:03:40.590Z,16.55
2023-05-21T01:06:10.831Z,16.58
2023-05-21T01:08:41.241Z,16.57
2023-05-21T01:11:11.593Z,16.60
2023-05-21T01:13:42.059Z,16.64
2023-05-21T01:16:12.354Z,16.64
2023-05-21T01:18:42.827Z,16.60
2023-05-21T01:21:13.106Z,16.54
2023-05-21T01:23:43.499Z,16.47
2023-05-21T01:26:13.857Z,16.39
2023-05-21T01:28:44.267Z,16.28
2023-05-21T01:31:14.618Z,16.24
2023-05-21T01:33:45.080Z,16.18
2023-05-21T01:36:15.116Z,16.19
2023-05-21T01:38:45.527Z,16.22
2023-05-21T01:41:15.621Z,16.20
2023-05-21T01:43:45.706Z,16.18
2023-05-21T01:46:16.109Z,16.04
2023-05-21T01:48:46.455Z,16.08
2023-05-21T01:51:16.924Z,16.04
2023-05-21T01:53:47.274Z,15.92
2023-05-21T01:56:17.650Z,15.93
2023-05-21T01:58:48.061Z,15.93
2023-05-21T02:01:18.458Z,15.97
2023-05-21T02:03:48.985Z,16.02
2023-05-21T02:06:19.252Z,16.00
2023-05-21T02:08:49.394Z,16.04
2023-05-21T02:11:19.786Z,15.97
2023-05-21T02:13:49.945Z,16.04
2023-05-21T02:16:20.150Z,16.08
2023-05-21T02:18:50.846Z,16.06
2023-05-21T02:21:21.259Z,16.01
2023-05-21T02:23:51.848Z,15.99
2023-05-21T02:26:22.660Z,16.00
2023-05-21T02:28:53.023Z,15.99
2023-05-21T02:31:23.411Z,15.91
2023-05-21T02:33:53.585Z,15.84
2023-05-21T02:36:23.592Z,15.79
2023-05-21T02:38:54.314Z,15.78
2023-05-21T02:41:24.688Z,15.78
2023-05-21T02:43:55.128Z,15.79
2023-05-21T02:46:25.556Z,15.70
2023-05-21T02:48:55.665Z,15.66
2023-05-21T02:51:26.056Z,15.68
2023-05-21T02:53:56.491Z,15.69
2023-05-21T02:56:26.884Z,15.70
2023-05-21T02:58:57.307Z,15.76
2023-05-21T03:01:27.793Z,15.78
2023-05-21T03:03:58.185Z,15.77
2023-05-21T03:06:28.194Z,15.78
2023-05-21T03:08:58.660Z,15.70
2023-05-21T03:11:29.029Z,15.62
2023-05-21T03:13:59.472Z,15.60
2023-05-21T03:16:29.960Z,15.60
2023-05-21T03:19:00.388Z,15.57
2023-05-21T03:21:30.698Z,15.57
2023-05-21T03:24:00.878Z,15.59
2023-05-21T03:26:31.547Z,15.55
2023-05-21T03:29:01.979Z,15.55
2023-05-21T03:31:32.529Z,15.54
2023-05-21T03:34:02.864Z,15.53
2023-05-21T03:36:33.226Z,15.50
2023-05-21T03:39:03.704Z,15.39
2023-05-21T03:41:34.082Z,15.35
2023-05-21T03:44:04.550Z,15.27
2023-05-21T03:46:34.758Z,15.28
2023-05-21T03:49:05.573Z,15.27
2023-05-21T03:51:35.891Z,15.16
2023-05-21T03:54:06.352Z,15.06
2023-05-21T03:56:36.554Z,15.04
2023-05-21T03:59:07.139Z,14.89
2023-05-21T04:01:37.553Z,14.80
2023-05-21T04:04:08.057Z,14.78
2023-05-21T04:06:38.403Z,14.73
2023-05-21T04:09:08.847Z,14.66
2023-05-21T04:11:39.386Z,14.60
2023-05-21T04:14:09.409Z,14.56
2023-05-21T04:16:39.877Z,14.58
2023-05-21T04:19:10.295Z,14.57
2023-05-21T04:21:40.414Z,14.59
2023-05-21T04:24:10.861Z,14.61
2023-05-21T04:26:41.268Z,14.64
2023-05-21T04:29:11.918Z,14.53
2023-05-21T04:31:42.386Z,14.54
2023-05-21T04:34:13.064Z,14.56
2023-05-21T04:36:43.477Z,14.45
2023-05-21T04:39:13.938Z,14.41
2023-05-21T04:41:44.364Z,14.40
2023-05-21T04:44:14.570Z,14.45
2023-05-21T04:46:45.258Z,14.35
2023-05-21T04:49:15.679Z,14.38
2023-05-21T04:51:45.833Z,14.39
2023-05-21T04:54:16.032Z,14.40
2023-05-21T04:56:46.087Z,14.41
2023-05-21T04:59:16.271Z,14.42
2023-05-21T05:01:46.719Z,14.48
2023-05-21T05:04:16.898Z,14.51
2023-05-21T05:06:47.334Z,14.59
2023-05-21T05:09:17.512Z,14.63
2023-05-21T05:11:47.837Z,14.61
2023-05-21T05:14:18.362Z,14.62
2023-05-21T05:16:48.704Z,14.68
2023-05-21T05:19:19.560Z,14.70
2023-05-21T05:21:49.823Z,14.70
2023-05-21T05:24:20.282Z,14.74
2023-05-21T05:26:50.692Z,14.75
2023-05-21T05:29:21.053Z,14.82
2023-05-21T05:31:51.456Z,14.76
2023-05-21T05:34:21.607Z,14.80
2023-05-21T05:36:52.083Z,14.83
2023-05-21T05:39:22.175Z,14.87
2023-05-21T05:41:52.232Z,14.85
2023-05-21T05:44:22.699Z,14.82
2023-05-21T05:46:53.189Z,14.84
2023-05-21T05:49:23.841Z,14.82
2023-05-21T05:51:54.346Z,14.85
2023-05-21T05:54:24.715Z,14.82
2023-05-21T05:56:55.236Z,14.80
2023-05-21T05:59:25.575Z,14.84
2023-05-21T06:01:56.003Z,14.87
2023-05-21T06:04:26.446Z,14.90
2023-05-21T06:06:56.880Z,14.80
2023-05-21T06:09:27.164Z,14.85
2023-05-21T06:11:57.131Z,14.87
2023-05-21T06:14:27.578Z,14.91
2023-05-21T06:16:58.430Z,14.97
2023-05-21T06:19:28.727Z,14.96
2023-05-21T06:21:58.961Z,14.97
2023-05-21T06:24:29.075Z,14.87
2023-05-21T06:26:59.208Z,14.84
2023-05-21T06:29:29.666Z,14.90
2023-05-21T06:31:59.835Z,14.87
2023-05-21T06:34:30.219Z,14.86
2023-05-21T06:37:00.293Z,14.76
2023-05-21T06:39:31.131Z,14.92
2023-05-21T06:42:01.628Z,14.68
2023-05-21T06:44:32.186Z,14.71
2023-05-21T06:47:02.511Z,14.79
2023-05-21T06:49:32.964Z,14.85
2023-05-21T06:52:03.392Z,14.83
2023-05-21T06:54:33.587Z,14.86
2023-05-21T06:57:04.004Z,14.83
2023-05-21T06:59:34.598Z,14.83
2023-05-21T07:02:04.921Z,14.83
2023-05-21T07:04:35.351Z,14.89
2023-05-21T07:07:05.328Z,14.92
2023-05-21T07:09:35.956Z,14.97
2023-05-21T07:12:06.333Z,15.04
2023-05-21T07:14:36.429Z,15.10
2023-05-21T07:17:07.310Z,15.01
2023-05-21T07:19:37.847Z,15.13
2023-05-21T07:22:08.282Z,15.17
2023-05-21T07:24:38.718Z,15.21
2023-05-21T07:27:24.269Z,15.09
2023-05-21T07:29:39.833Z,15.18
2023-05-21T07:32:10.293Z,15.25
2023-05-21T07:34:40.684Z,15.22
2023-05-21T07:37:11.107Z,15.14
2023-05-21T07:39:41.264Z,15.37
2023-05-21T07:42:11.654Z,15.38
2023-05-21T07:44:42.107Z,15.62
2023-05-21T07:47:12.131Z,15.72
2023-05-21T07:49:42.387Z,15.73
2023-05-21T07:52:12.743Z,15.84
2023-05-21T07:54:42.849Z,15.60
2023-05-21T07:57:13.350Z,15.65
2023-05-21T07:59:43.662Z,15.79
2023-05-21T08:02:13.705Z,15.97
2023-05-21T08:04:44.156Z,16.08
2023-05-21T08:07:14.229Z,16.14
2023-05-21T08:09:44.395Z,16.21
2023-05-21T08:12:14.471Z,16.35
2023-05-21T08:14:44.559Z,16.50
2023-05-21T08:17:14.931Z,16.62
2023-05-21T08:19:45.445Z,16.47
2023-05-21T08:22:15.660Z,16.55
2023-05-21T08:24:46.101Z,16.71
2023-05-21T08:27:16.267Z,16.73
2023-05-21T08:29:46.848Z,16.88
2023-05-21T08:32:16.910Z,16.90
2023-05-21T08:34:47.217Z,16.80
2023-05-21T08:37:17.304Z,16.74
2023-05-21T08:39:47.979Z,16.83
2023-05-21T08:42:32.924Z,16.89
2023-05-21T08:44:48.707Z,16.98
2023-05-21T08:47:19.080Z,17.05
2023-05-21T08:49:49.075Z,17.18
2023-05-21T08:52:19.724Z,17.27
2023-05-21T08:54:50.404Z,17.44
2023-05-21T08:57:20.733Z,17.50
2023-05-21T08:59:51.373Z,17.58
2023-05-21T09:02:21.616Z,17.60
2023-05-21T09:04:51.659Z,17.68
2023-05-21T09:07:21.697Z,17.64
2023-05-21T09:09:51.941Z,17.80
2023-05-21T09:12:22.054Z,17.74
2023-05-21T09:14:52.161Z,17.97
2023-05-21T09:17:22.709Z,17.96
2023-05-21T09:19:52.793Z,17.98
2023-05-21T09:22:23.659Z,18.06
2023-05-21T09:24:54.015Z,18.12
2023-05-21T09:27:24.315Z,18.36
2023-05-21T09:29:55.120Z,18.33
2023-05-21T09:32:25.802Z,18.30
2023-05-21T09:34:56.492Z,18.36
2023-05-21T09:37:27.874Z,18.47
2023-05-21T09:39:57.986Z,18.64
2023-05-21T09:42:28.271Z,18.74
2023-05-21T09:44:58.814Z,18.80
2023-05-21T09:47:29.127Z,18.95
2023-05-21T09:49:59.217Z,18.96
2023-05-21T09:52:29.810Z,18.72
2023-05-21T09:55:00.346Z,18.84
2023-05-21T09:57:30.344Z,18.88
2023-05-21T10:00:00.958Z,19.09
2023-05-21T10:02:31.301Z,19.18
2023-05-21T10:05:01.796Z,19.37
2023-05-21T10:07:32.371Z,19.54
2023-05-21T10:10:02.642Z,19.59
2023-05-21T10:12:33.078Z,19.68
2023-05-21T10:15:03.835Z,19.70
2023-05-21T10:17:34.063Z,19.71
2023-05-21T10:20:04.617Z,19.75
2023-05-21T10:22:34.624Z,19.82
2023-05-21T10:25:05.160Z,19.97
2023-05-21T10:27:35.250Z,20.18
2023-05-21T10:30:05.600Z,20.25
2023-05-21T10:32:36.661Z,20.26
2023-05-21T10:35:06.545Z,20.37
2023-05-21T10:37:36.825Z,20.54
2023-05-21T10:40:07.479Z,20.73
2023-05-21T10:42:38.169Z,20.66
2023-05-21T10:45:08.967Z,20.73
2023-05-21T10:47:39.040Z,20.64
2023-05-21T10:50:09.489Z,20.84
2023-05-21T10:52:40.049Z,20.92
2023-05-21T10:55:10.236Z,21.08
2023-05-21T10:57:41.120Z,21.31
2023-05-21T11:00:11.934Z,21.20
2023-05-21T11:02:42.523Z,21.24
2023-05-21T11:05:12.999Z,21.40
2023-05-21T11:07:43.654Z,21.40
2023-05-21T11:10:13.957Z,21.62
2023-05-21T11:12:44.599Z,21.58
2023-05-21T11:15:15.010Z,21.77
2023-05-21T11:17:45.503Z,21.72
2023-05-21T11:20:16.011Z,21.91
2023-05-21T11:22:46.684Z,22.06
2023-05-21T11:25:16.870Z,22.05
2023-05-21T11:27:47.077Z,21.97
2023-05-21T11:30:17.307Z,21.90
2023-05-21T11:32:47.622Z,21.93
2023-05-21T11:35:18.094Z,21.85
2023-05-21T11:37:48.767Z,22.07
2023-05-21T11:40:19.056Z,22.20
2023-05-21T11:42:49.302Z,22.16
2023-05-21T11:45:19.503Z,22.16
2023-05-21T11:47:50.157Z,22.34
2023-05-21T11:50:20.368Z,22.55
2023-05-21T11:52:50.575Z,22.71
2023-05-21T11:55:21.112Z,22.81
2023-05-21T11:57:51.369Z,22.91
2023-05-21T12:00:21.391Z,23.01
2023-05-21T12:02:51.978Z,23.03
2023-05-21T12:05:22.663Z,23.08
2023-05-21T12:07:53.129Z,22.96
2023-05-21T12:10:23.570Z,22.99
2023-05-21T12:12:56.607Z,22.99
2023-05-21T12:15:24.862Z,23.03
2023-05-21T12:17:54.931Z,22.93
2023-05-21T12:20:25.705Z,22.91
2023-05-21T12:22:56.138Z,23.00
2023-05-21T12:25:26.229Z,23.06
2023-05-21T12:27:56.508Z,22.88
2023-05-21T12:30:27.190Z,22.87
2023-05-21T12:32:57.774Z,22.78
2023-05-21T12:35:27.847Z,22.87
2023-05-21T12:37:58.465Z,23.07
2023-05-21T12:40:28.967Z,23.22
2023-05-21T12:42:59.086Z,23.17
2023-05-21T12:45:29.303Z,23.15
2023-05-21T12:47:59.988Z,23.19
2023-05-21T12:50:30.275Z,23.24
2023-05-21T12:53:00.869Z,23.39
2023-05-21T12:55:31.255Z,23.32
2023-05-21T12:58:02.056Z,23.49
2023-05-21T13:00:32.484Z,23.53
2023-05-21T13:03:03.221Z,23.53
2023-05-21T13:05:34.007Z,23.51
2023-05-21T13:08:04.493Z,23.12
2023-05-21T13:10:34.756Z,23.32
2023-05-21T13:13:04.719Z,23.31
2023-05-21T13:15:34.870Z,23.46
2023-05-21T13:18:05.155Z,23.56
2023-05-21T13:20:35.361Z,23.50
2023-05-21T13:23:06.786Z,23.58
2023-05-21T13:25:36.053Z,23.68
2023-05-21T13:28:06.257Z,23.74
2023-05-21T13:30:36.643Z,23.95
2023-05-21T13:33:06.683Z,24.09
2023-05-21T13:35:37.366Z,24.26
2023-05-21T13:38:07.383Z,24.34
2023-05-21T13:40:38.969Z,24.45
2023-05-21T13:43:07.941Z,24.60
2023-05-21T13:45:38.191Z,24.70
2023-05-21T13:48:08.877Z,24.69
2023-05-21T13:50:39.053Z,24.71
2023-05-21T13:53:09.148Z,24.77
2023-05-21T13:55:40.050Z,24.85
2023-05-21T13:58:10.258Z,24.87
2023-05-21T14:00:40.684Z,24.95
2023-05-21T14:03:11.253Z,24.91
2023-05-21T14:05:41.252Z,24.79
2023-05-21T14:08:12.050Z,24.72
2023-05-21T14:10:42.844Z,24.75
2023-05-21T14:13:19.439Z,24.71
2023-05-21T14:15:43.572Z,24.72
2023-05-21T14:18:14.072Z,24.74
2023-05-21T14:20:44.780Z,24.80
2023-05-21T14:23:14.799Z,24.88
2023-05-21T14:25:45.270Z,24.85
2023-05-21T14:28:15.503Z,24.89
2023-05-21T14:30:46.080Z,24.85
2023-05-21T14:33:16.793Z,24.72
2023-05-21T14:35:47.237Z,24.60
2023-05-21T14:38:17.375Z,24.69
2023-05-21T14:40:48.115Z,24.80
2023-05-21T14:43:18.440Z,24.75
2023-05-21T14:45:48.930Z,24.74
2023-05-21T14:48:19.346Z,24.86
2023-05-21T14:50:50.083Z,24.95
2023-05-21T14:53:20.552Z,24.91
2023-05-21T14:55:51.303Z,24.94
2023-05-21T14:58:21.345Z,24.99
2023-05-21T15:00:51.518Z,25.04
2023-05-21T15:03:22.054Z,25.00
2023-05-21T15:05:52.007Z,25.01
2023-05-21T15:08:22.233Z,25.00
2023-05-21T15:10:52.475Z,24.96
2023-05-21T15:13:23.100Z,24.83
2023-05-21T15:15:53.538Z,24.82
2023-05-21T15:18:24.311Z,24.83
2023-05-21T15:20:54.396Z,24.81
2023-05-21T15:23:24.572Z,24.81
2023-05-21T15:25:54.992Z,24.76
2023-05-21T15:28:25.672Z,24.55
2023-05-21T15:30:56.412Z,24.67
2023-05-21T15:33:26.577Z,24.71
2023-05-21T15:35:56.825Z,24.71
2023-05-21T15:38:26.873Z,24.72
2023-05-21T15:40:57.346Z,24.80
2023-05-21T15:43:27.290Z,24.86
2023-05-21T15:45:57.407Z,24.88
2023-05-21T15:48:28.220Z,24.90
2023-05-21T15:50:58.294Z,24.94
2023-05-21T15:53:28.740Z,24.88
2023-05-21T15:55:59.325Z,24.85
2023-05-21T15:58:30.031Z,24.88
2023-05-21T16:01:00.270Z,24.89
2023-05-21T16:03:30.432Z,24.88
2023-05-21T16:06:00.468Z,24.86
2023-05-21T16:08:30.637Z,24.82
2023-05-21T16:11:00.752Z,24.85
2023-05-21T16:13:31.585Z,24.87
2023-05-21T16:16:01.694Z,24.88
2023-05-21T16:18:32.429Z,24.85
2023-05-21T16:21:02.906Z,24.93
2023-05-21T16:23:33.351Z,25.02
2023-05-21T16:26:03.559Z,25.05
2023-05-21T16:28:33.921Z,25.03
2023-05-21T16:31:04.128Z,25.08
2023-05-21T16:33:34.765Z,25.03
2023-05-21T16:36:04.960Z,25.07
2023-05-21T16:38:35.606Z,25.07
2023-05-21T16:41:06.164Z,25.06
2023-05-21T16:43:36.173Z,24.97
2023-05-21T16:46:06.454Z,25.05
2023-05-21T16:48:38.139Z,25.07
2023-05-21T16:51:07.260Z,25.08
2023-05-21T16:53:37.543Z,25.08
2023-05-21T16:56:08.168Z,25.09
2023-05-21T16:58:38.878Z,25.14
2023-05-21T17:01:09.420Z,25.22
2023-05-21T17:03:41.628Z,25.28
2023-05-21T17:06:09.928Z,25.35
2023-05-21T17:08:40.603Z,25.39
2023-05-21T17:11:11.393Z,25.38
2023-05-21T17:13:41.788Z,25.37
2023-05-21T17:16:11.923Z,25.41
2023-05-21T17:18:42.318Z,25.42
2023-05-21T17:21:13.201Z,25.42
2023-05-21T17:23:43.528Z,25.41
2023-05-21T17:26:14.366Z,25.35
2023-05-21T17:28:44.445Z,25.34
2023-05-21T17:31:15.229Z,25.33
2023-05-21T17:33:45.612Z,25.33
2023-05-21T17:36:15.870Z,25.31
2023-05-21T17:38:46.104Z,25.33
2023-05-21T17:41:16.915Z,25.34
2023-05-21T17:43:47.757Z,25.35
2023-05-21T17:46:18.580Z,25.36
2023-05-21T17:48:48.650Z,25.32
2023-05-21T17:51:19.346Z,25.34
2023-05-21T17:53:49.484Z,25.33
2023-05-21T17:56:20.005Z,25.31
2023-05-21T17:58:50.418Z,25.21
2023-05-21T18:01:20.822Z,25.18
2023-05-21T18:03:51.162Z,25.16
2023-05-21T18:06:21.926Z,25.13
2023-05-21T18:08:52.350Z,25.09
2023-05-21T18:11:22.555Z,25.01
2023-05-21T18:13:52.589Z,24.95
2023-05-21T18:16:22.755Z,24.92
2023-05-21T18:18:53.162Z,24.82
2023-05-21T18:21:23.832Z,24.75
2023-05-21T18:23:54.716Z,24.74
2023-05-21T18:26:25.453Z,24.68
2023-05-21T18:28:56.304Z,24.66
2023-05-21T18:31:27.189Z,24.55
2023-05-21T18:33:57.240Z,24.49
2023-05-21T18:36:27.564Z,24.44
2023-05-21T18:38:58.158Z,24.39
2023-05-21T18:41:28.402Z,24.36
2023-05-21T18:43:58.581Z,24.32
2023-05-21T18:46:29.525Z,24.27
2023-05-21T18:48:59.641Z,24.22
2023-05-21T18:51:30.110Z,24.19
2023-05-21T18:54:00.725Z,24.18
2023-05-21T18:56:30.959Z,24.16
2023-05-21T18:59:01.110Z,24.12
2023-05-21T19:01:31.352Z,24.07
2023-05-21T19:04:01.845Z,24.01
2023-05-21T19:06:32.340Z,23.96
2023-05-21T19:09:02.815Z,23.89
2023-05-21T19:11:33.431Z,23.83
2023-05-21T19:14:03.468Z,23.76
2023-05-21T19:16:33.732Z,23.68
2023-05-21T19:19:04.152Z,23.63
2023-05-21T19:21:34.897Z,23.56
2023-05-21T19:24:06.206Z,23.51
2023-05-21T19:26:35.994Z,23.43
2023-05-21T19:29:06.449Z,23.37
2023-05-21T19:31:36.620Z,23.32
2023-05-21T19:34:06.740Z,23.28
2023-05-21T19:36:51.595Z,23.24
2023-05-21T19:39:07.692Z,23.22
2023-05-21T19:41:37.751Z,23.14
2023-05-21T19:44:08.424Z,23.11
2023-05-21T19:46:39.241Z,23.08
2023-05-21T19:49:09.355Z,22.96
2023-05-21T19:51:40.083Z,22.83
2023-05-21T19:54:10.453Z,22.84
2023-05-21T19:56:40.816Z,22.83
2023-05-21T19:59:10.951Z,22.77
2023-05-21T20:01:41.249Z,22.74
2023-05-21T20:04:11.503Z,22.68
2023-05-21T20:06:41.621Z,22.64
2023-05-21T20:09:12.052Z,22.58
2023-05-21T20:11:42.348Z,22.53
2023-05-21T20:14:12.790Z,22.51
2023-05-21T20:16:43.450Z,22.49
2023-05-21T20:19:13.872Z,22.44
2023-05-21T20:21:44.267Z,22.43
2023-05-21T20:24:14.875Z,22.45
2023-05-21T20:26:45.153Z,22.43
2023-05-21T20:29:15.972Z,22.39
2023-05-21T20:31:46.612Z,22.33
2023-05-21T20:34:17.049Z,22.26
2023-05-21T20:36:47.132Z,22.20
2023-05-21T20:39:17.475Z,22.20
2023-05-21T20:41:48.335Z,22.22
2023-05-21T20:44:19.095Z,22.25
2023-05-21T20:46:49.551Z,22.28
2023-05-21T20:49:19.532Z,22.29
2023-05-21T20:51:49.993Z,22.29
2023-05-21T20:54:20.160Z,22.28
2023-05-21T20:56:50.438Z,22.27
2023-05-21T20:59:21.245Z,22.24
2023-05-21T21:01:52.079Z,22.20
2023-05-21T21:04:22.270Z,22.19
2023-05-21T21:06:52.866Z,22.14
2023-05-21T21:09:23.410Z,22.10
2023-05-21T21:11:53.721Z,22.04
2023-05-21T21:14:24.110Z,21.97
2023-05-21T21:16:54.702Z,21.91
2023-05-21T21:19:24.929Z,21.86
2023-05-21T21:21:55.536Z,21.83
2023-05-21T21:24:26.067Z,21.81
2023-05-21T21:26:56.479Z,21.77
2023-05-21T21:29:27.050Z,21.72
2023-05-21T21:31:57.898Z,21.62
2023-05-21T21:34:28.412Z,21.51
2023-05-21T21:36:59.224Z,21.39
2023-05-21T21:39:29.956Z,21.31
2023-05-21T21:42:00.102Z,21.24
2023-05-21T21:44:30.582Z,21.22
2023-05-21T21:47:00.671Z,21.26
2023-05-21T21:49:31.211Z,21.16
2023-05-21T21:52:01.358Z,20.86
2023-05-21T21:54:31.451Z,20.79
2023-05-21T21:57:01.845Z,20.69
2023-05-21T21:59:31.713Z,20.74
2023-05-21T22:02:01.931Z,20.75
2023-05-21T22:04:32.279Z,20.82
2023-05-21T22:07:02.621Z,20.86
2023-05-21T22:09:32.753Z,20.86
2023-05-21T22:12:03.389Z,20.92
2023-05-21T22:14:33.424Z,20.98
2023-05-21T22:17:03.664Z,21.07
2023-05-21T22:19:33.669Z,21.11
2023-05-21T22:22:03.727Z,21.16
2023-05-21T22:24:33.968Z,21.20
2023-05-21T22:27:04.329Z,21.26
2023-05-21T22:29:34.640Z,21.28
2023-05-21T22:32:05.263Z,21.28
2023-05-21T22:34:35.897Z,21.27
2023-05-21T22:37:06.731Z,21.24
2023-05-21T22:39:36.873Z,21.25
2023-05-21T22:42:07.173Z,21.25
2023-05-21T22:44:37.608Z,21.26
2023-05-21T22:47:07.783Z,21.25
2023-05-21T22:49:38.226Z,21.24
2023-05-21T22:52:09.076Z,21.26
2023-05-21T22:54:39.532Z,21.30
2023-05-21T22:57:10.415Z,21.30
2023-05-21T22:59:40.424Z,21.19
2023-05-21T23:02:10.557Z,21.07
2023-05-21T23:04:44.423Z,20.97
2023-05-21T23:07:11.708Z,20.83
2023-05-21T23:09:42.186Z,20.69
2023-05-21T23:12:12.649Z,20.58
2023-05-21T23:14:43.006Z,20.52
2023-05-21T23:17:13.316Z,20.53
2023-05-21T23:19:43.584Z,20.55
2023-05-21T23:22:13.709Z,20.49
2023-05-21T23:24:44.025Z,20.46
2023-05-21T23:27:14.389Z,20.45
2023-05-21T23:29:44.375Z,20.50
2023-05-21T23:32:15.176Z,20.57
2023-05-21T23:34:45.991Z,20.64
2023-05-21T23:37:16.470Z,20.69
2023-05-21T23:39:47.134Z,20.63
2023-05-21T23:42:17.351Z,20.41
2023-05-21T23:44:47.453Z,20.31
2023-05-21T23:47:18.021Z,20.27
2023-05-21T23:49:48.805Z,20.27
2023-05-21T23:52:18.900Z,20.33
2023-05-21T23:54:49.145Z,20.37
2023-05-21T23:57:19.164Z,20.38
2023-05-21T23:59:50.112Z,20.42
